sensor_id;sensor_type;location;lat;lon;timestamp;P1;durP1;ratioP1;P2;durP2;ratioP2
9506;SDS011;4791;47.528;9.372;2022-08-07T00:09:17;12.85;;;11.65;;
9506;SDS011;4791;47.528;9.372;2022-08-07T00:24:21;12.57;;;11.43;;
9506;SDS011;4791;47.528;9.372;2022-08-07T00:39:24;13.63;;;12.23;;
9506;SDS011;4791;47.528;9.372;2022-08-07T00:54:24;13.95;;;12.52;;
9506;SDS011;4791;47.528;9.372;2022-08-07T01:09:24;13.02;;;11.93;;
9506;SDS011;4791;47.528;9.372;2022-08-07T01:24:30;15.43;;;13.82;;
9506;SDS011;4791;47.528;9.372;2022-08-07T01:39:31;13.27;;;12.07;;
9506;SDS011;4791;47.528;9.372;2022-08-07T01:54:39;14.18;;;12.63;;
9506;SDS011;4791;47.528;9.372;2022-08-07T02:24:46;14.82;;;13.43;;
9506;SDS011;4791;47.528;9.372;2022-08-07T02:39:47;14.82;;;13.43;;
9506;SDS011;4791;47.528;9.372;2022-08-07T02:54:49;14.60;;;13.32;;
9506;SDS011;4791;47.528;9.372;2022-08-07T03:09:55;15.85;;;14.52;;
9506;SDS011;4791;47.528;9.372;2022-08-07T03:24:58;16.83;;;15.20;;
9506;SDS011;4791;47.528;9.372;2022-08-07T03:40:05;16.95;;;15.23;;
9506;SDS011;4791;47.528;9.372;2022-08-07T03:55:06;14.27;;;13.10;;
9506;SDS011;4791;47.528;9.372;2022-08-07T04:10:09;16.23;;;14.50;;
9506;SDS011;4791;47.528;9.372;2022-08-07T04:25:10;15.82;;;14.35;;
9506;SDS011;4791;47.528;9.372;2022-08-07T04:40:10;16.38;;;14.98;;
9506;SDS011;4791;47.528;9.372;2022-08-07T04:55:21;15.80;;;14.33;;
9506;SDS011;4791;47.528;9.372;2022-08-07T05:10:34;14.93;;;13.43;;
9506;SDS011;4791;47.528;9.372;2022-08-07T05:25:39;14.25;;;12.95;;
9506;SDS011;4791;47.528;9.372;2022-08-07T05:40:43;13.07;;;11.52;;
9506;SDS011;4791;47.528;9.372;2022-08-07T05:55:45;10.80;;;9.90;;
9506;SDS011;4791;47.528;9.372;2022-08-07T06:10:46;11.63;;;10.43;;
9506;SDS011;4791;47.528;9.372;2022-08-07T06:25:46;11.05;;;10.13;;
9506;SDS011;4791;47.528;9.372;2022-08-07T06:40:50;10.30;;;9.40;;
9506;SDS011;4791;47.528;9.372;2022-08-07T06:55:53;10.95;;;9.80;;
9506;SDS011;4791;47.528;9.372;2022-08-07T07:10:56;9.75;;;8.80;;
9506;SDS011;4791;47.528;9.372;2022-08-07T07:25:58;16.00;;;8.88;;
9506;SDS011;4791;47.528;9.372;2022-08-07T07:41:02;5.38;;;4.88;;
9506;SDS011;4791;47.528;9.372;2022-08-07T07:56:04;6.40;;;3.80;;
9506;SDS011;4791;47.528;9.372;2022-08-07T08:11:07;6.03;;;4.07;;
9506;SDS011;4791;47.528;9.372;2022-08-07T08:26:12;4.25;;;2.92;;
9506;SDS011;4791;47.528;9.372;2022-08-07T08:41:56;3.13;;;2.60;;
9506;SDS011;4791;47.528;9.372;2022-08-07T08:57:00;3.30;;;2.97;;
9506;SDS011;4791;47.528;9.372;2022-08-07T09:28:18;3.95;;;3.15;;
9506;SDS011;4791;47.528;9.372;2022-08-07T09:43:11;4.22;;;3.35;;
9506;SDS011;4791;47.528;9.372;2022-08-07T10:44:40;4.25;;;2.58;;
9506;SDS011;4791;47.528;9.372;2022-08-07T11:15:16;3.28;;;2.55;;
9506;SDS011;4791;47.528;9.372;2022-08-07T11:30:21;3.10;;;2.60;;
9506;SDS011;4791;47.528;9.372;2022-08-07T12:00:35;4.53;;;2.22;;
9506;SDS011;4791;47.528;9.372;2022-08-07T12:15:40;3.85;;;2.33;;
9506;SDS011;4791;47.528;9.372;2022-08-07T12:30:47;4.38;;;2.72;;
9506;SDS011;4791;47.528;9.372;2022-08-07T13:31:24;3.13;;;2.25;;
9506;SDS011;4791;47.528;9.372;2022-08-07T13:46:40;3.83;;;2.42;;
9506;SDS011;4791;47.528;9.372;2022-08-07T14:01:43;3.03;;;2.23;;
9506;SDS011;4791;47.528;9.372;2022-08-07T14:16:48;4.60;;;2.28;;
9506;SDS011;4791;47.528;9.372;2022-08-07T14:31:51;2.47;;;2.00;;
9506;SDS011;4791;47.528;9.372;2022-08-07T14:46:53;3.22;;;2.42;;
9506;SDS011;4791;47.528;9.372;2022-08-07T15:02:03;4.18;;;2.45;;
9506;SDS011;4791;47.528;9.372;2022-08-07T15:17:17;2.67;;;1.63;;
9506;SDS011;4791;47.528;9.372;2022-08-07T15:32:30;5.03;;;2.47;;
9506;SDS011;4791;47.528;9.372;2022-08-07T15:47:31;3.42;;;1.95;;
9506;SDS011;4791;47.528;9.372;2022-08-07T16:02:39;3.13;;;1.88;;
9506;SDS011;4791;47.528;9.372;2022-08-07T16:33:00;2.45;;;2.15;;
9506;SDS011;4791;47.528;9.372;2022-08-07T17:03:17;2.45;;;2.13;;
9506;SDS011;4791;47.528;9.372;2022-08-07T17:18:35;4.57;;;2.33;;
9506;SDS011;4791;47.528;9.372;2022-08-07T17:33:46;3.15;;;2.70;;
9506;SDS011;4791;47.528;9.372;2022-08-07T18:19:51;2.72;;;2.38;;
9506;SDS011;4791;47.528;9.372;2022-08-07T19:05:30;3.08;;;2.67;;
9506;SDS011;4791;47.528;9.372;2022-08-07T19:36:01;3.15;;;2.83;;
9506;SDS011;4791;47.528;9.372;2022-08-07T19:51:04;4.40;;;3.25;;
9506;SDS011;4791;47.528;9.372;2022-08-07T20:06:08;3.67;;;3.00;;
9506;SDS011;4791;47.528;9.372;2022-08-07T20:21:09;3.78;;;2.72;;
9506;SDS011;4791;47.528;9.372;2022-08-07T20:36:15;3.08;;;2.78;;
9506;SDS011;4791;47.528;9.372;2022-08-07T20:51:20;5.25;;;3.40;;
9506;SDS011;4791;47.528;9.372;2022-08-07T21:06:24;7.20;;;4.40;;
9506;SDS011;4791;47.528;9.372;2022-08-07T21:21:29;4.93;;;4.43;;
9506;SDS011;4791;47.528;9.372;2022-08-07T21:36:38;4.57;;;4.18;;
9506;SDS011;4791;47.528;9.372;2022-08-07T22:22:12;5.32;;;4.60;;
9506;SDS011;4791;47.528;9.372;2022-08-07T22:53:25;6.95;;;5.32;;
9506;SDS011;4791;47.528;9.372;2022-08-07T23:23:56;5.90;;;5.40;;
9506;SDS011;4791;47.528;9.372;2022-08-07T23:39:19;6.35;;;5.18;;
9506;SDS011;4791;47.528;9.372;2022-08-07T23:54:26;6.35;;;4.75;;
